createdAt,value
2022-11-10T00:01:51.350Z,100426.39
2022-11-10T00:04:42.498Z,100429.99
2022-11-10T00:07:33.187Z,100429.81
2022-11-10T00:10:23.706Z,100432.80
2022-11-10T00:13:14.940Z,100433.30
2022-11-10T00:16:27.200Z,100435.68
2022-11-10T00:19:17.739Z,100438.64
2022-11-10T00:22:09.635Z,100434.02
2022-11-10T00:25:01.055Z,100431.68
2022-11-10T00:27:51.873Z,100439.88
2022-11-10T00:30:46.668Z,100442.59
2022-11-10T00:33:38.899Z,100442.98
2022-11-10T00:36:29.443Z,100445.27
2022-11-10T00:39:20.234Z,100449.96
2022-11-10T00:42:11.496Z,100453.73
2022-11-10T00:45:03.526Z,100457.44
2022-11-10T00:47:54.795Z,100465.73
2022-11-10T00:50:46.633Z,100463.06
2022-11-10T00:53:37.911Z,100466.88
2022-11-10T00:56:29.443Z,100463.23
2022-11-10T00:59:21.066Z,100460.10
2022-11-10T01:02:11.921Z,100459.64
2022-11-10T01:05:03.659Z,100460.81
2022-11-10T01:07:55.129Z,100462.58
2022-11-10T01:10:46.646Z,100459.41
2022-11-10T01:13:38.641Z,100461.43
2022-11-10T01:16:31.270Z,100462.27
2022-11-10T01:19:22.177Z,100464.29
2022-11-10T01:22:13.313Z,100467.71
2022-11-10T01:25:07.991Z,100468.94
2022-11-10T01:28:00.017Z,100470.14
2022-11-10T01:30:51.080Z,100468.35
2022-11-10T01:33:42.226Z,100474.31
2022-11-10T01:36:34.145Z,100473.14
2022-11-10T01:39:24.817Z,100476.27
2022-11-10T01:42:15.259Z,100474.72
2022-11-10T01:46:00.429Z,100475.89
2022-11-10T01:48:56.169Z,100474.91
2022-11-10T01:51:53.215Z,100471.42
2022-11-10T01:54:47.746Z,100479.88
2022-11-10T01:57:40.137Z,100480.48
2022-11-10T02:00:31.276Z,100481.35
2022-11-10T02:03:30.175Z,100484.70
2022-11-10T02:06:24.248Z,100484.87
2022-11-10T02:09:17.434Z,100483.39
2022-11-10T02:12:09.759Z,100488.66
2022-11-10T02:15:00.827Z,100488.61
2022-11-10T02:17:51.717Z,100486.81
2022-11-10T02:20:45.492Z,100487.41
2022-11-10T02:23:53.331Z,100491.18
2022-11-10T02:26:49.811Z,100491.41
2022-11-10T02:29:42.437Z,100497.67
2022-11-10T02:32:33.699Z,100496.11
2022-11-10T02:35:24.555Z,100498.17
2022-11-10T02:38:16.624Z,100498.84
2022-11-10T02:41:08.597Z,100500.81
2022-11-10T02:44:00.789Z,100500.75
2022-11-10T02:46:51.333Z,100502.34
2022-11-10T02:49:42.037Z,100510.04
2022-11-10T02:52:33.664Z,100508.11
2022-11-10T02:55:25.047Z,100509.31
2022-11-10T02:58:15.506Z,100512.09
2022-11-10T03:01:09.091Z,100515.91
2022-11-10T03:03:59.947Z,100521.41
2022-11-10T03:06:50.712Z,100520.52
2022-11-10T03:09:42.282Z,100527.79
2022-11-10T03:12:32.928Z,100533.08
2022-11-10T03:15:24.427Z,100535.94
2022-11-10T03:18:14.793Z,100542.71
2022-11-10T03:21:05.347Z,100539.49
2022-11-10T03:23:56.883Z,100541.38
2022-11-10T03:26:47.582Z,100538.02
2022-11-10T03:29:38.792Z,100533.82
2022-11-10T03:32:29.524Z,100542.88
2022-11-10T03:35:21.284Z,100548.14
2022-11-10T03:38:12.096Z,100550.70
2022-11-10T03:41:19.878Z,100553.37
2022-11-10T03:44:11.412Z,100555.20
2022-11-10T03:47:04.050Z,100563.45
2022-11-10T03:49:55.278Z,100566.43
2022-11-10T03:52:48.892Z,100561.16
2022-11-10T03:55:40.365Z,100566.83
2022-11-10T03:58:32.658Z,100567.52
2022-11-10T04:01:23.972Z,100572.45
2022-11-10T04:04:29.666Z,100574.73
2022-11-10T04:07:37.788Z,100584.67
2022-11-10T04:10:28.182Z,100581.73
2022-11-10T04:13:36.587Z,100579.98
2022-11-10T04:16:27.513Z,100584.38
2022-11-10T04:19:18.891Z,100586.05
2022-11-10T04:22:29.554Z,100590.39
2022-11-10T04:25:20.400Z,100593.96
2022-11-10T04:28:11.069Z,100607.24
2022-11-10T04:31:02.283Z,100612.63
2022-11-10T04:33:55.959Z,100616.26
2022-11-10T04:36:49.006Z,100619.67
2022-11-10T04:39:39.511Z,100621.75
2022-11-10T04:42:30.174Z,100621.05
2022-11-10T04:45:21.303Z,100627.74
2022-11-10T04:48:12.163Z,100627.98
2022-11-10T04:51:08.004Z,100623.92
2022-11-10T04:53:59.689Z,100624.69
2022-11-10T04:56:51.021Z,100629.97
2022-11-10T04:59:42.359Z,100637.41
2022-11-10T05:02:38.284Z,100642.26
2022-11-10T05:05:31.138Z,100643.41
2022-11-10T05:08:22.070Z,100646.77
2022-11-10T05:11:13.243Z,100644.25
2022-11-10T05:14:03.830Z,100645.77
2022-11-10T05:16:54.622Z,100646.42
2022-11-10T05:19:47.580Z,100651.28
2022-11-10T05:22:38.659Z,100657.77
2022-11-10T05:25:29.870Z,100664.01
2022-11-10T05:28:21.282Z,100666.70
2022-11-10T05:31:13.039Z,100670.17
2022-11-10T05:34:04.443Z,100671.36
2022-11-10T05:36:55.348Z,100675.92
2022-11-10T05:39:46.571Z,100678.73
2022-11-10T05:42:43.286Z,100685.30
2022-11-10T05:45:34.815Z,100690.98
2022-11-10T05:48:25.937Z,100697.05
2022-11-10T05:51:16.804Z,100705.42
2022-11-10T05:54:08.874Z,100707.40
2022-11-10T05:56:59.804Z,100713.85
2022-11-10T05:59:50.556Z,100716.07
2022-11-10T06:02:41.891Z,100720.11
2022-11-10T06:05:35.082Z,100729.13
2022-11-10T06:08:26.470Z,100730.50
2022-11-10T06:11:17.016Z,100730.86
2022-11-10T06:14:08.294Z,100738.20
2022-11-10T06:16:59.570Z,100742.66
2022-11-10T06:19:51.162Z,100750.41
2022-11-10T06:22:42.471Z,100751.05
2022-11-10T06:25:34.647Z,100759.32
2022-11-10T06:28:25.617Z,100760.60
2022-11-10T06:31:16.713Z,100762.98
2022-11-10T06:34:07.345Z,100760.11
2022-11-10T06:36:58.594Z,100767.55
2022-11-10T06:39:49.046Z,100775.92
2022-11-10T06:42:40.293Z,100778.67
2022-11-10T06:45:31.527Z,100781.42
2022-11-10T06:48:22.707Z,100787.64
2022-11-10T06:51:13.536Z,100802.36
2022-11-10T06:54:04.385Z,100803.30
2022-11-10T06:56:55.936Z,100808.25
2022-11-10T06:59:48.169Z,100811.44
2022-11-10T07:02:39.325Z,100816.98
2022-11-10T07:05:31.064Z,100824.05
2022-11-10T07:08:22.603Z,100828.96
2022-11-10T07:11:14.270Z,100841.11
2022-11-10T07:14:05.186Z,100845.71
2022-11-10T07:16:55.453Z,100851.59
2022-11-10T07:19:46.242Z,100854.28
2022-11-10T07:22:36.916Z,100857.80
2022-11-10T07:25:28.079Z,100866.83
2022-11-10T07:28:18.500Z,100871.22
2022-11-10T07:31:10.766Z,100874.70
2022-11-10T07:34:03.578Z,100873.55
2022-11-10T07:36:55.953Z,100882.55
2022-11-10T07:39:48.454Z,100894.05
2022-11-10T07:42:45.794Z,100898.36
2022-11-10T07:45:37.911Z,100903.23
2022-11-10T07:48:29.211Z,100909.27
2022-11-10T07:51:21.193Z,100913.30
2022-11-10T07:54:12.682Z,100917.77
2022-11-10T07:57:04.309Z,100924.73
2022-11-10T07:59:57.942Z,100925.65
2022-11-10T08:02:52.646Z,100920.38
2022-11-10T08:05:44.521Z,100925.00
2022-11-10T08:08:35.801Z,100924.30
2022-11-10T08:11:27.405Z,100931.65
2022-11-10T08:14:18.500Z,100940.11
2022-11-10T08:17:10.968Z,100948.42
2022-11-10T08:20:02.534Z,100953.40
2022-11-10T08:22:59.961Z,100959.50
2022-11-10T08:25:53.453Z,100958.03
2022-11-10T08:28:45.986Z,100962.00
2022-11-10T08:31:38.753Z,100966.39
2022-11-10T08:34:30.156Z,100974.40
2022-11-10T08:37:21.539Z,100975.68
2022-11-10T08:40:28.448Z,100975.76
2022-11-10T08:43:21.112Z,100981.34
2022-11-10T08:46:13.106Z,100987.35
2022-11-10T08:49:04.542Z,100991.41
2022-11-10T08:51:57.039Z,101001.27
2022-11-10T08:54:50.530Z,101003.39
2022-11-10T08:57:42.418Z,101010.95
2022-11-10T09:00:34.369Z,101008.48
2022-11-10T09:03:27.874Z,101015.26
2022-11-10T09:06:18.005Z,101019.61
2022-11-10T09:09:10.917Z,101028.08
2022-11-10T09:12:00.660Z,101026.16
2022-11-10T09:14:52.719Z,101042.45
2022-11-10T09:17:46.458Z,101048.91
2022-11-10T09:20:39.028Z,101053.70
2022-11-10T09:23:31.886Z,101053.47
2022-11-10T09:26:22.868Z,101061.74
2022-11-10T09:29:15.826Z,101064.41
2022-11-10T09:32:08.341Z,101066.27
2022-11-10T09:35:02.764Z,101066.84
2022-11-10T09:37:54.654Z,101073.80
2022-11-10T09:40:57.035Z,101076.52
2022-11-10T09:44:04.366Z,101077.90
2022-11-10T09:47:01.637Z,101080.67
2022-11-10T09:49:59.070Z,101086.36
2022-11-10T09:52:53.809Z,101085.86
2022-11-10T09:55:50.849Z,101082.39
2022-11-10T09:58:45.792Z,101087.23
2022-11-10T10:01:47.084Z,101090.46
2022-11-10T10:05:04.197Z,101092.36
2022-11-10T10:08:02.589Z,101099.12
2022-11-10T10:11:09.322Z,101104.16
2022-11-10T10:14:18.145Z,101104.13
2022-11-10T10:17:22.631Z,101104.83
2022-11-10T10:20:21.416Z,101110.52
2022-11-10T10:23:40.397Z,101114.63
2022-11-10T10:26:40.684Z,101115.11
2022-11-10T10:29:39.191Z,101116.66
2022-11-10T10:32:31.104Z,101120.59
2022-11-10T10:35:22.577Z,101117.21
2022-11-10T10:38:21.839Z,101125.93
2022-11-10T10:41:23.990Z,101117.45
2022-11-10T10:44:17.829Z,101122.94
2022-11-10T10:47:08.965Z,101124.34
2022-11-10T10:50:22.300Z,101121.66
2022-11-10T10:53:20.517Z,101123.36
2022-11-10T10:56:21.590Z,101123.20
2022-11-10T10:59:21.907Z,101124.51
2022-11-10T11:02:26.532Z,101130.92
2022-11-10T11:05:20.276Z,101126.51
2022-11-10T11:08:22.169Z,101123.15
2022-11-10T11:11:15.219Z,101123.05
2022-11-10T11:14:22.746Z,101135.14
2022-11-10T11:17:20.048Z,101135.55
2022-11-10T11:20:16.725Z,101137.39
2022-11-10T11:23:17.887Z,101145.49
2022-11-10T11:26:19.446Z,101146.98
2022-11-10T11:29:27.783Z,101150.31
2022-11-10T11:32:31.541Z,101147.02
2022-11-10T11:35:32.561Z,101149.45
2022-11-10T11:38:31.859Z,101150.78
2022-11-10T11:41:34.365Z,101152.55
2022-11-10T11:44:54.739Z,101155.75
2022-11-10T11:48:01.677Z,101151.88
2022-11-10T11:50:57.855Z,101158.33
2022-11-10T11:54:12.018Z,101162.91
2022-11-10T11:57:17.809Z,101163.99
2022-11-10T12:00:16.819Z,101166.47
2022-11-10T12:03:34.091Z,101165.59
2022-11-10T12:06:36.846Z,101172.35
2022-11-10T12:09:38.615Z,101182.50
2022-11-10T12:12:57.237Z,101182.33
2022-11-10T12:15:56.821Z,101186.14
2022-11-10T12:18:58.202Z,101190.70
2022-11-10T12:21:53.373Z,101181.49
2022-11-10T12:24:57.712Z,101186.73
2022-11-10T12:27:52.355Z,101185.36
2022-11-10T12:30:46.023Z,101189.52
2022-11-10T12:33:46.908Z,101188.69
2022-11-10T12:36:38.938Z,101199.33
2022-11-10T12:39:44.406Z,101199.24
2022-11-10T12:42:38.989Z,101206.98
2022-11-10T12:45:35.348Z,101211.30
2022-11-10T12:48:29.365Z,101213.72
2022-11-10T12:51:25.947Z,101220.56
2022-11-10T12:54:19.389Z,101221.88
2022-11-10T12:57:16.815Z,101223.88
2022-11-10T13:00:28.419Z,101229.83
2022-11-10T13:03:30.584Z,101231.31
2022-11-10T13:06:30.068Z,101229.23
2022-11-10T13:09:33.564Z,101238.30
2022-11-10T13:12:26.617Z,101239.35
2022-11-10T13:16:02.548Z,101237.98
2022-11-10T13:18:57.797Z,101242.41
2022-11-10T13:22:34.265Z,101247.37
2022-11-10T13:25:56.174Z,101252.11
2022-11-10T13:29:01.637Z,101251.25
2022-11-10T13:31:59.260Z,101256.81
2022-11-10T13:34:52.323Z,101259.88
2022-11-10T13:38:00.038Z,101260.60
2022-11-10T13:40:51.706Z,101258.45
2022-11-10T13:43:51.506Z,101259.31
2022-11-10T13:46:56.402Z,101261.41
2022-11-10T13:50:02.874Z,101262.90
2022-11-10T13:53:10.677Z,101269.71
2022-11-10T13:56:19.763Z,101271.54
2022-11-10T13:59:23.471Z,101275.20
2022-11-10T14:02:52.060Z,101279.20
2022-11-10T14:06:11.972Z,101285.24
2022-11-10T14:09:13.385Z,101295.18
2022-11-10T14:12:15.555Z,101298.49
2022-11-10T14:15:14.535Z,101311.34
2022-11-10T14:18:15.950Z,101310.42
2022-11-10T14:21:12.532Z,101314.86
2022-11-10T14:24:12.786Z,101317.19
2022-11-10T14:27:15.825Z,101322.13
2022-11-10T14:30:20.036Z,101322.70
2022-11-10T14:33:14.974Z,101329.88
2022-11-10T14:36:09.816Z,101332.77
2022-11-10T14:39:01.194Z,101328.70
2022-11-10T14:41:53.948Z,101326.74
2022-11-10T14:44:44.656Z,101332.25
2022-11-10T14:47:38.049Z,101334.45
2022-11-10T14:50:32.954Z,101339.30
2022-11-10T14:53:29.424Z,101346.91
2022-11-10T14:56:24.717Z,101351.79
2022-11-10T14:59:17.288Z,101353.29
2022-11-10T15:02:12.451Z,101360.22
2022-11-10T15:05:06.523Z,101362.42
2022-11-10T15:08:01.145Z,101366.36
2022-11-10T15:10:56.350Z,101373.63
2022-11-10T15:13:47.042Z,101377.77
2022-11-10T15:16:41.443Z,101381.07
2022-11-10T15:19:36.537Z,101386.48
2022-11-10T15:22:32.743Z,101393.02
2022-11-10T15:25:26.561Z,101398.85
2022-11-10T15:28:25.564Z,101414.06
2022-11-10T15:31:25.582Z,101415.84
2022-11-10T15:34:40.516Z,101418.63
2022-11-10T15:37:34.441Z,101424.75
2022-11-10T15:40:47.471Z,101435.34
2022-11-10T15:43:38.623Z,101435.69
2022-11-10T15:46:31.102Z,101443.15
2022-11-10T15:49:33.151Z,101453.51
2022-11-10T15:52:25.145Z,101450.13
2022-11-10T15:55:25.077Z,101455.96
2022-11-10T15:58:20.557Z,101459.59
2022-11-10T16:01:14.110Z,101460.03
2022-11-10T16:04:04.505Z,101461.86
2022-11-10T16:06:57.108Z,101462.45
2022-11-10T16:09:48.595Z,101466.20
2022-11-10T16:12:39.602Z,101463.58
2022-11-10T16:15:31.124Z,101467.39
2022-11-10T16:18:24.224Z,101473.55
2022-11-10T16:21:16.658Z,101479.21
2022-11-10T16:24:07.818Z,101487.95
2022-11-10T16:26:58.728Z,101493.23
2022-11-10T16:29:49.245Z,101492.45
2022-11-10T16:32:41.011Z,101494.88
2022-11-10T16:35:31.544Z,101496.70
2022-11-10T16:38:25.315Z,101496.64
2022-11-10T16:41:16.767Z,101500.44
2022-11-10T16:44:11.131Z,101502.34
2022-11-10T16:47:02.925Z,101506.19
2022-11-10T16:49:53.557Z,101502.46
2022-11-10T16:52:44.309Z,101503.25
2022-11-10T16:55:34.984Z,101501.95
2022-11-10T16:58:27.455Z,101505.77
2022-11-10T17:01:22.694Z,101511.86
2022-11-10T17:04:16.193Z,101517.87
2022-11-10T17:07:11.409Z,101517.39
2022-11-10T17:10:05.213Z,101518.48
2022-11-10T17:12:55.959Z,101517.54
2022-11-10T17:15:47.307Z,101519.48
2022-11-10T17:18:38.610Z,101518.04
2022-11-10T17:21:33.144Z,101517.09
2022-11-10T17:24:24.730Z,101514.83
2022-11-10T17:27:16.884Z,101526.89
2022-11-10T17:30:10.519Z,101529.00
2022-11-10T17:33:05.686Z,101537.46
2022-11-10T17:35:58.253Z,101538.02
2022-11-10T17:38:49.126Z,101540.38
2022-11-10T17:41:39.525Z,101536.71
2022-11-10T17:44:30.368Z,101541.77
2022-11-10T17:47:21.195Z,101552.30
2022-11-10T17:50:12.483Z,101553.69
2022-11-10T17:53:16.052Z,101559.52
2022-11-10T17:56:05.222Z,101558.09
2022-11-10T17:58:56.204Z,101562.27
2022-11-10T18:01:47.224Z,101568.98
2022-11-10T18:04:38.251Z,101567.92
2022-11-10T18:07:28.756Z,101571.23
2022-11-10T18:10:19.475Z,101573.20
2022-11-10T18:13:10.777Z,101575.17
2022-11-10T18:16:01.589Z,101575.69
2022-11-10T18:18:51.969Z,101580.73
2022-11-10T18:21:42.491Z,101583.30
2022-11-10T18:24:33.249Z,101591.64
2022-11-10T18:27:23.932Z,101594.74
2022-11-10T18:30:19.056Z,101600.59
2022-11-10T18:33:10.943Z,101603.98
2022-11-10T18:36:02.247Z,101601.61
2022-11-10T18:38:52.783Z,101601.40
2022-11-10T18:41:52.662Z,101599.06
2022-11-10T18:44:43.307Z,101594.89
2022-11-10T18:47:33.736Z,101589.20
2022-11-10T18:50:24.288Z,101583.73
2022-11-10T18:53:14.692Z,101582.65
2022-11-10T18:56:05.537Z,101576.73
2022-11-10T18:58:57.036Z,101576.06
2022-11-10T19:01:48.347Z,101578.35
2022-11-10T19:04:39.131Z,101581.80
2022-11-10T19:07:29.726Z,101589.58
2022-11-10T19:10:20.446Z,101592.50
2022-11-10T19:13:10.841Z,101591.23
2022-11-10T19:16:04.032Z,101590.46
2022-11-10T19:18:54.706Z,101588.48
2022-11-10T19:21:45.508Z,101583.56
2022-11-10T19:24:53.646Z,101585.72
2022-11-10T19:27:46.877Z,101594.46
2022-11-10T19:30:37.247Z,101596.78
2022-11-10T19:33:28.737Z,101606.16
2022-11-10T19:36:21.515Z,101602.99
2022-11-10T19:39:12.492Z,101600.88
2022-11-10T19:42:03.393Z,101603.74
2022-11-10T19:44:54.519Z,101609.14
2022-11-10T19:47:45.576Z,101616.59
2022-11-10T19:50:36.278Z,101617.78
2022-11-10T19:53:26.931Z,101613.27
2022-11-10T19:56:20.214Z,101614.35
2022-11-10T19:59:13.353Z,101620.14
2022-11-10T20:02:04.480Z,101626.48
2022-11-10T20:05:17.985Z,101635.48
2022-11-10T20:08:13.716Z,101644.34
2022-11-10T20:11:08.109Z,101641.27
2022-11-10T20:14:00.738Z,101632.75
2022-11-10T20:16:51.173Z,101638.02
2022-11-10T20:19:42.096Z,101637.33
2022-11-10T20:22:38.388Z,101643.43
2022-11-10T20:25:30.569Z,101652.38
2022-11-10T20:28:21.819Z,101649.41
2022-11-10T20:31:16.152Z,101651.61
2022-11-10T20:34:07.063Z,101647.08
2022-11-10T20:36:57.997Z,101635.87
2022-11-10T20:39:50.191Z,101632.39
2022-11-10T20:42:42.817Z,101629.96
2022-11-10T20:45:35.113Z,101635.40
2022-11-10T20:48:26.513Z,101635.98
2022-11-10T20:51:19.390Z,101634.95
2022-11-10T20:54:10.947Z,101633.98
2022-11-10T20:57:01.912Z,101635.92
2022-11-10T20:59:52.117Z,101636.81
2022-11-10T21:02:43.279Z,101642.17
2022-11-10T21:05:33.690Z,101641.99
2022-11-10T21:08:24.494Z,101641.52
2022-11-10T21:11:36.039Z,101648.71
2022-11-10T21:14:27.587Z,101644.08
2022-11-10T21:17:18.342Z,101644.08
2022-11-10T21:20:10.897Z,101650.37
2022-11-10T21:23:03.609Z,101650.71
2022-11-10T21:26:00.477Z,101655.61
2022-11-10T21:28:52.530Z,101656.54
2022-11-10T21:31:44.317Z,101656.55
2022-11-10T21:34:35.723Z,101653.52
2022-11-10T21:37:26.937Z,101656.42
2022-11-10T21:40:17.867Z,101651.52
2022-11-10T21:43:08.603Z,101658.92
2022-11-10T21:46:01.769Z,101662.55
2022-11-10T21:48:52.611Z,101669.98
2022-11-10T21:51:43.685Z,101669.11
2022-11-10T21:54:34.189Z,101671.84
2022-11-10T21:57:24.647Z,101678.38
2022-11-10T22:00:16.602Z,101686.00
2022-11-10T22:03:07.423Z,101693.41
2022-11-10T22:06:03.038Z,101694.01
2022-11-10T22:08:53.923Z,101691.77
2022-11-10T22:12:01.849Z,101693.80
2022-11-10T22:15:09.486Z,101701.95
2022-11-10T22:18:17.849Z,101707.03
2022-11-10T22:21:09.733Z,101710.48
2022-11-10T22:24:17.366Z,101715.34
2022-11-10T22:27:09.037Z,101718.38
2022-11-10T22:30:00.360Z,101716.77
2022-11-10T22:32:50.959Z,101723.79
2022-11-10T22:35:44.064Z,101721.97
2022-11-10T22:38:35.148Z,101723.23
2022-11-10T22:41:42.835Z,101724.13
2022-11-10T22:44:33.269Z,101722.50
2022-11-10T22:47:23.753Z,101725.42
2022-11-10T22:50:14.206Z,101726.26
2022-11-10T22:53:05.249Z,101728.23
2022-11-10T22:55:59.604Z,101725.30
2022-11-10T22:58:50.036Z,101727.11
2022-11-10T23:01:42.464Z,101725.14
2022-11-10T23:04:33.788Z,101722.39
2022-11-10T23:07:24.399Z,101727.07
2022-11-10T23:10:15.378Z,101728.86
2022-11-10T23:13:06.154Z,101725.98
2022-11-10T23:16:02.115Z,101729.27
2022-11-10T23:18:53.584Z,101723.12
2022-11-10T23:21:44.424Z,101721.83
2022-11-10T23:24:36.277Z,101720.38
2022-11-10T23:27:27.195Z,101721.99
2022-11-10T23:30:17.889Z,101721.98
2022-11-10T23:33:08.806Z,101718.19
2022-11-10T23:35:59.587Z,101721.59
2022-11-10T23:38:50.669Z,101719.95
2022-11-10T23:41:41.356Z,101713.99
2022-11-10T23:44:31.981Z,101715.71
2022-11-10T23:47:24.653Z,101718.57
2022-11-10T23:50:15.006Z,101724.38
2022-11-10T23:53:05.305Z,101728.02
2022-11-10T23:56:03.325Z,101717.14
2022-11-10T23:58:53.669Z,101717.13
